Weather reports worldwide

Advertisment
Tarifa, Spain (8458): temperature & dewpoint: 17.05.2019 14:00:00 - 23.05.2019 14:00:00 (CEST)Tarifa, Spain (8458): wind speed & gusts: 17.05.2019 14:00:00 - 23.05.2019 14:00:00 (CEST)Tarifa, Spain (8458): wind direction: 17.05.2019 14:00:00 - 23.05.2019 14:00:00 (CEST)Tarifa, Spain (8458): precipitation: 17.05.2019 14:00:00 - 23.05.2019 14:00:00 (CEST)
Date & Time tt [°C] td [°C] ff [km/h] ff [kn] fx [km/h] fx [kn] dd rr [mm]
23.05.2019 14:00:00 - - - - - - - -
23.05.2019 13:00:00 21,1 16,9 28 15 48 26 E 0,0
23.05.2019 12:00:00 20,5 16,7 30 16 48 26 E 0,0
23.05.2019 11:00:00 19,8 16,6 32 17 50 27 E 0,0
23.05.2019 10:00:00 19,1 16,1 35 19 49 26 E 0,0
23.05.2019 09:00:00 18,4 15,3 29 16 44 24 E 0,0
23.05.2019 08:00:00 17,6 13,4 28 15 48 26 E -
23.05.2019 07:00:00 17,4 12,5 31 17 52 28 E 0,0
23.05.2019 06:00:00 17,4 12,5 30 16 47 25 E 0,0
23.05.2019 05:00:00 18,6 8,8 26 14 54 29 E 0,0
23.05.2019 04:00:00 19,4 8,4 31 17 51 28 ENE 0,0
23.05.2019 03:00:00 19,1 7,8 25 13 46 25 ENE 0,0
23.05.2019 02:00:00 19,2 9,9 23 13 46 25 ENE -
23.05.2019 01:00:00 18,7 11,8 27 14 42 23 E 0,0
23.05.2019 00:00:00 18,5 12,2 24 13 42 23 ENE 0,0
22.05.2019 23:00:00 18,4 13,1 26 14 49 26 ENE 0,0
22.05.2019 22:00:00 18,4 13,7 29 16 49 27 ENE 0,0
22.05.2019 21:00:00 18,2 15,1 29 16 45 24 E 0,0
22.05.2019 20:00:00 19,1 14,8 33 18 46 25 ENE -
22.05.2019 19:00:00 20,2 14,8 27 15 43 23 ENE 0,0
22.05.2019 18:00:00 20,4 15,6 30 16 48 26 E 0,0
22.05.2019 17:00:00 20,7 16,6 32 17 49 27 E 0,0
22.05.2019 16:00:00 20,1 16,1 31 17 52 28 E 0,0
22.05.2019 15:00:00 20,1 15,7 36 20 50 27 E 0,0
22.05.2019 14:00:00 19,9 15,8 30 16 - - E -
22.05.2019 13:00:00 - - - - - - - -
22.05.2019 12:00:00 - - - - - - - -
22.05.2019 11:00:00 - - - - - - - -
22.05.2019 10:00:00 18,4 15,6 26 14 45 25 E 0,0
22.05.2019 09:00:00 17,0 15,7 27 15 45 25 E 0,0
22.05.2019 08:00:00 16,6 15,6 23 13 40 21 E -
22.05.2019 07:00:00 16,3 15,3 22 12 40 22 ENE 0,0
22.05.2019 06:00:00 13,2 12,7 5 3 10 5 NNE 0,0
22.05.2019 05:00:00 15,4 14,9 8 5 11 6 ESE 0,0
22.05.2019 04:00:00 14,4 13,7 4 2 9 5 NE 0,0
22.05.2019 03:00:00 14,0 12,7 1 1 5 3 NW 0,0
22.05.2019 02:00:00 16,0 14,5 0 0 12 6 W -
22.05.2019 01:00:00 17,2 14,8 10 5 17 9 WSW 0,0
22.05.2019 00:00:00 17,3 15,3 9 5 18 10 W 0,0
21.05.2019 23:00:00 17,1 16,3 13 7 22 12 W 0,0
21.05.2019 22:00:00 17,3 15,8 16 8 24 13 W 0,0
21.05.2019 21:00:00 18,0 15,4 16 9 29 16 WSW 0,0
21.05.2019 20:00:00 18,9 15,3 18 10 30 16 W -
21.05.2019 19:00:00 19,4 15,4 18 10 30 16 W 0,0
21.05.2019 18:00:00 18,7 14,8 17 9 29 15 W 0,0
21.05.2019 17:00:00 19,3 15,0 16 9 32 17 W 0,0
21.05.2019 16:00:00 20,3 15,5 15 8 29 16 W 0,0
21.05.2019 15:00:00 19,9 15,8 16 9 27 15 W 0,0
21.05.2019 14:00:00 - - - - - - - -
21.05.2019 13:00:00 18,3 14,6 15 8 25 13 W 0,0
21.05.2019 12:00:00 19,1 15,3 14 8 25 14 WSW 0,0
21.05.2019 11:00:00 18,1 16,0 16 9 23 12 WSW 0,0
21.05.2019 10:00:00 17,2 15,3 13 7 21 12 SW 0,0
21.05.2019 09:00:00 16,4 14,7 13 7 26 14 SW 0,0
21.05.2019 08:00:00 16,3 15,3 15 8 28 15 SW -
21.05.2019 07:00:00 16,3 14,6 17 9 32 18 SW 0,0
21.05.2019 06:00:00 16,5 14,9 18 10 35 19 SW 0,0
21.05.2019 05:00:00 16,6 15,2 16 9 32 17 SW 0,0
21.05.2019 04:00:00 16,8 15,5 13 7 24 13 W 0,0
21.05.2019 03:00:00 16,7 15,4 11 6 24 13 W 0,0
21.05.2019 02:00:00 17,1 15,4 12 7 20 11 W -
21.05.2019 01:00:00 16,7 12,6 6 4 14 8 NW 0,0
21.05.2019 00:00:00 16,7 12,4 8 4 21 11 WNW 0,0
20.05.2019 23:00:00 17,8 13,9 9 5 52 28 WNW 0,0
20.05.2019 22:00:00 17,8 13,1 16 8 31 17 WNW 0,0
20.05.2019 21:00:00 18,4 11,9 16 8 29 16 W 0,0
20.05.2019 20:00:00 18,5 13,2 19 10 31 17 WNW -
20.05.2019 19:00:00 18,8 13,7 22 12 33 18 W 0,0
20.05.2019 18:00:00 18,7 12,8 18 10 31 17 W 0,0
20.05.2019 17:00:00 18,8 14,2 19 10 32 17 W 0,0
20.05.2019 16:00:00 19,3 15,3 20 11 31 17 W 0,0
20.05.2019 15:00:00 20,2 15,8 14 8 31 17 W 0,0
20.05.2019 14:00:00 18,5 14,8 22 12 31 17 W -
20.05.2019 13:00:00 19,7 15,8 11 6 26 14 W 0,0
20.05.2019 12:00:00 19,2 16,0 12 6 24 13 W 0,0
20.05.2019 11:00:00 18,9 16,5 12 6 22 12 WSW 0,0
20.05.2019 10:00:00 18,0 16,3 15 8 22 12 WSW 0,0
20.05.2019 09:00:00 17,5 16,6 14 7 23 13 WSW 0,0
20.05.2019 08:00:00 17,0 16,2 14 8 26 14 WSW -
20.05.2019 07:00:00 16,9 16,1 14 7 25 13 WSW 0,0
20.05.2019 06:00:00 17,0 16,2 16 9 24 13 WSW 0,0
20.05.2019 05:00:00 16,8 16,0 13 7 23 12 WSW 0,0
20.05.2019 04:00:00 16,9 16,1 14 8 23 13 WSW 0,0
20.05.2019 03:00:00 17,3 16,3 11 6 22 12 W 0,0
20.05.2019 02:00:00 17,1 16,3 11 6 22 12 W -
20.05.2019 01:00:00 17,0 16,0 14 8 20 11 W 0,0
20.05.2019 00:00:00 17,0 16,0 11 6 22 12 W 0,0
19.05.2019 23:00:00 17,1 15,8 13 7 29 15 W 0,0
19.05.2019 22:00:00 17,2 15,3 16 9 26 14 W 0,0
19.05.2019 21:00:00 17,4 14,9 16 9 26 14 W 0,0
19.05.2019 20:00:00 17,8 14,3 14 7 31 17 W -
19.05.2019 19:00:00 18,7 14,6 22 12 37 20 WSW 0,0
19.05.2019 18:00:00 18,4 13,5 22 12 38 20 W 0,0
19.05.2019 17:00:00 19,3 13,3 22 12 35 19 W 0,0
19.05.2019 16:00:00 19,2 13,0 18 10 34 18 W 0,0
19.05.2019 15:00:00 18,2 12,2 19 11 42 23 W 0,0
19.05.2019 14:00:00 18,3 12,1 29 15 42 23 W -
19.05.2019 13:00:00 17,6 11,4 24 13 43 23 W 0,0
19.05.2019 12:00:00 17,2 11,0 27 15 42 23 W 0,0
19.05.2019 11:00:00 16,6 10,4 27 15 41 22 W 0,0
19.05.2019 10:00:00 16,2 10,9 16 9 31 17 WNW 0,0
19.05.2019 09:00:00 15,6 10,5 22 12 34 18 WNW 0,0
19.05.2019 08:00:00 15,4 10,2 15 8 27 15 WNW -
19.05.2019 07:00:00 15,7 9,8 14 7 26 14 W 0,0
19.05.2019 06:00:00 15,7 10,3 17 9 32 17 WNW 0,0
19.05.2019 05:00:00 16,1 9,8 17 9 34 18 WNW 0,0
19.05.2019 04:00:00 16,2 10,0 18 10 32 18 WNW 0,0
19.05.2019 03:00:00 15,9 13,2 6 4 26 14 WNW 0,0
19.05.2019 02:00:00 16,8 14,8 14 8 34 19 W -
19.05.2019 01:00:00 16,7 14,1 18 10 30 16 WSW 0,0
19.05.2019 00:00:00 16,7 13,7 22 12 35 19 WSW 0,0
18.05.2019 23:00:00 16,7 13,1 22 12 37 20 WSW 0,0
18.05.2019 22:00:00 16,9 12,8 24 13 40 22 W 0,0
18.05.2019 21:00:00 16,9 11,8 24 13 42 23 W 0,0
18.05.2019 20:00:00 17,0 11,0 22 12 43 23 W -
18.05.2019 19:00:00 17,3 10,9 25 13 49 26 W 0,0
18.05.2019 18:00:00 17,6 10,5 28 15 49 27 W 0,0
18.05.2019 17:00:00 17,5 9,4 32 17 48 26 W 0,0
18.05.2019 16:00:00 17,6 9,7 28 15 44 24 W 0,0
18.05.2019 15:00:00 16,9 9,3 31 17 47 25 W 0,0
18.05.2019 14:00:00 17,3 9,7 27 15 46 25 W -
18.05.2019 13:00:00 18,0 10,6 24 13 39 21 WSW 0,0
18.05.2019 12:00:00 17,0 8,9 22 12 33 18 WSW 0,0
18.05.2019 11:00:00 15,9 8,4 22 12 32 17 W 0,0
18.05.2019 10:00:00 15,1 7,4 18 10 35 19 WNW 0,0
18.05.2019 09:00:00 13,9 7,4 16 9 28 15 WNW 0,0
18.05.2019 08:00:00 13,2 7,0 13 7 21 11 NNW -
18.05.2019 07:00:00 13,1 7,1 13 7 22 12 NW 0,0
18.05.2019 06:00:00 14,6 8,1 13 7 32 17 WNW 0,0
18.05.2019 05:00:00 15,2 9,0 21 11 36 19 NNW 0,0
18.05.2019 04:00:00 16,0 11,8 12 6 20 11 NW 0,0
18.05.2019 03:00:00 16,9 15,1 11 6 23 12 W 0,0
18.05.2019 02:00:00 16,9 14,9 13 7 26 14 W -
18.05.2019 01:00:00 16,8 13,9 14 8 22 12 W 0,0
18.05.2019 00:00:00 16,8 13,8 17 9 31 17 W 0,0
17.05.2019 23:00:00 16,8 12,7 20 11 31 17 W 0,0
17.05.2019 22:00:00 16,8 11,6 20 11 38 21 W 0,0
17.05.2019 21:00:00 16,9 11,2 22 12 39 21 W 0,0
17.05.2019 20:00:00 17,2 11,0 21 11 43 23 WSW -
17.05.2019 19:00:00 17,8 10,2 27 14 49 26 W 0,0
17.05.2019 18:00:00 18,0 10,2 32 17 48 26 W 0,0
17.05.2019 17:00:00 18,4 10,5 29 16 50 27 W 0,0
17.05.2019 16:00:00 17,5 9,7 31 17 49 26 W 0,0
17.05.2019 15:00:00 17,2 9,3 32 18 52 28 W 0,0
17.05.2019 14:00:00 17,3 9,7 30 16 50 27 W -

tt = temperature
td = dewpoint
ff = wind speed
fx = gusts
dd = wind direction
rr = precipitation

Next stations